sensor_id;sensor_type;location;lat;lon;timestamp;P1;durP1;ratioP1;P2;durP2;ratioP2
59310;SDS011;45078;51.654;21.250;2023-05-10T00:01:25;12.93;;;4.90;;
59310;SDS011;45078;51.654;21.250;2023-05-10T00:03:51;14.35;;;5.80;;
59310;SDS011;45078;51.654;21.250;2023-05-10T00:06:16;14.55;;;5.40;;
59310;SDS011;45078;51.654;21.250;2023-05-10T00:08:43;12.18;;;5.10;;
59310;SDS011;45078;51.654;21.250;2023-05-10T00:11:09;12.40;;;5.05;;
59310;SDS011;45078;51.654;21.250;2023-05-10T00:13:35;11.13;;;4.82;;
59310;SDS011;45078;51.654;21.250;2023-05-10T00:16:01;12.45;;;5.57;;
59310;SDS011;45078;51.654;21.250;2023-05-10T00:18:26;11.57;;;5.25;;
59310;SDS011;45078;51.654;21.250;2023-05-10T00:20:52;13.52;;;5.40;;
59310;SDS011;45078;51.654;21.250;2023-05-10T00:23:18;11.70;;;5.60;;
59310;SDS011;45078;51.654;21.250;2023-05-10T00:25:44;11.43;;;5.35;;
59310;SDS011;45078;51.654;21.250;2023-05-10T00:28:09;9.57;;;5.57;;
59310;SDS011;45078;51.654;21.250;2023-05-10T00:30:35;13.88;;;6.25;;
59310;SDS011;45078;51.654;21.250;2023-05-10T00:33:01;14.23;;;6.18;;
59310;SDS011;45078;51.654;21.250;2023-05-10T00:35:26;12.75;;;6.30;;
59310;SDS011;45078;51.654;21.250;2023-05-10T00:37:52;9.95;;;5.38;;
59310;SDS011;45078;51.654;21.250;2023-05-10T00:40:18;11.32;;;5.72;;
59310;SDS011;45078;51.654;21.250;2023-05-10T00:42:44;12.20;;;5.72;;
59310;SDS011;45078;51.654;21.250;2023-05-10T00:45:09;9.95;;;5.72;;
59310;SDS011;45078;51.654;21.250;2023-05-10T00:47:36;14.45;;;5.65;;
59310;SDS011;45078;51.654;21.250;2023-05-10T00:50:02;16.55;;;6.32;;
59310;SDS011;45078;51.654;21.250;2023-05-10T00:52:29;12.43;;;5.72;;
59310;SDS011;45078;51.654;21.250;2023-05-10T00:54:55;10.13;;;6.03;;
59310;SDS011;45078;51.654;21.250;2023-05-10T00:57:22;10.98;;;5.15;;
59310;SDS011;45078;51.654;21.250;2023-05-10T00:59:48;10.23;;;5.13;;
59310;SDS011;45078;51.654;21.250;2023-05-10T01:02:14;11.63;;;5.82;;
59310;SDS011;45078;51.654;21.250;2023-05-10T01:04:40;13.50;;;5.85;;
59310;SDS011;45078;51.654;21.250;2023-05-10T01:07:06;16.63;;;6.03;;
59310;SDS011;45078;51.654;21.250;2023-05-10T01:09:31;12.50;;;5.63;;
59310;SDS011;45078;51.654;21.250;2023-05-10T01:11:59;12.88;;;5.78;;
59310;SDS011;45078;51.654;21.250;2023-05-10T01:14:26;15.77;;;5.93;;
59310;SDS011;45078;51.654;21.250;2023-05-10T01:16:53;12.70;;;5.15;;
59310;SDS011;45078;51.654;21.250;2023-05-10T01:19:22;16.17;;;6.18;;
59310;SDS011;45078;51.654;21.250;2023-05-10T01:35:23;11.00;;;5.28;;
59310;SDS011;45078;51.654;21.250;2023-05-10T01:44:09;9.73;;;4.90;;
59310;SDS011;45078;51.654;21.250;2023-05-10T01:46:40;13.20;;;5.95;;
59310;SDS011;45078;51.654;21.250;2023-05-10T01:49:09;13.02;;;5.78;;
59310;SDS011;45078;51.654;21.250;2023-05-10T01:51:43;15.60;;;5.57;;
59310;SDS011;45078;51.654;21.250;2023-05-10T01:54:12;11.70;;;5.07;;
59310;SDS011;45078;51.654;21.250;2023-05-10T01:56:40;10.02;;;5.20;;
59310;SDS011;45078;51.654;21.250;2023-05-10T01:59:11;11.75;;;5.90;;
59310;SDS011;45078;51.654;21.250;2023-05-10T02:01:40;10.55;;;5.20;;
59310;SDS011;45078;51.654;21.250;2023-05-10T02:04:07;11.63;;;5.20;;
59310;SDS011;45078;51.654;21.250;2023-05-10T02:06:34;14.27;;;5.30;;
59310;SDS011;45078;51.654;21.250;2023-05-10T02:09:02;13.35;;;5.25;;
59310;SDS011;45078;51.654;21.250;2023-05-10T02:11:29;13.05;;;5.15;;
59310;SDS011;45078;51.654;21.250;2023-05-10T02:13:55;10.85;;;5.13;;
59310;SDS011;45078;51.654;21.250;2023-05-10T02:16:23;14.10;;;5.53;;
59310;SDS011;45078;51.654;21.250;2023-05-10T02:18:51;13.77;;;5.38;;
59310;SDS011;45078;51.654;21.250;2023-05-10T02:21:19;14.45;;;5.38;;
59310;SDS011;45078;51.654;21.250;2023-05-10T02:23:46;11.07;;;5.18;;
59310;SDS011;45078;51.654;21.250;2023-05-10T02:26:13;11.25;;;5.30;;
59310;SDS011;45078;51.654;21.250;2023-05-10T02:28:40;12.38;;;5.20;;
59310;SDS011;45078;51.654;21.250;2023-05-10T02:31:08;12.68;;;5.68;;
59310;SDS011;45078;51.654;21.250;2023-05-10T02:33:36;14.43;;;6.07;;
59310;SDS011;45078;51.654;21.250;2023-05-10T02:36:04;11.70;;;5.50;;
59310;SDS011;45078;51.654;21.250;2023-05-10T02:38:31;11.07;;;4.93;;
59310;SDS011;45078;51.654;21.250;2023-05-10T02:40:59;12.13;;;5.55;;
59310;SDS011;45078;51.654;21.250;2023-05-10T02:43:26;12.13;;;5.22;;
59310;SDS011;45078;51.654;21.250;2023-05-10T02:45:55;10.70;;;5.18;;
59310;SDS011;45078;51.654;21.250;2023-05-10T02:48:20;13.15;;;5.05;;
59310;SDS011;45078;51.654;21.250;2023-05-10T02:50:46;13.90;;;5.10;;
59310;SDS011;45078;51.654;21.250;2023-05-10T02:53:18;10.15;;;4.90;;
59310;SDS011;45078;51.654;21.250;2023-05-10T02:55:49;7.80;;;4.50;;
59310;SDS011;45078;51.654;21.250;2023-05-10T02:58:17;10.50;;;5.10;;
59310;SDS011;45078;51.654;21.250;2023-05-10T03:00:44;10.38;;;5.18;;
59310;SDS011;45078;51.654;21.250;2023-05-10T03:03:11;11.63;;;4.93;;
59310;SDS011;45078;51.654;21.250;2023-05-10T03:05:37;17.77;;;5.15;;
59310;SDS011;45078;51.654;21.250;2023-05-10T03:08:03;9.20;;;4.55;;
59310;SDS011;45078;51.654;21.250;2023-05-10T03:10:30;11.73;;;4.90;;
59310;SDS011;45078;51.654;21.250;2023-05-10T03:21:20;10.20;;;4.55;;
59310;SDS011;45078;51.654;21.250;2023-05-10T03:23:50;8.15;;;4.05;;
59310;SDS011;45078;51.654;21.250;2023-05-10T03:26:24;8.52;;;4.30;;
59310;SDS011;45078;51.654;21.250;2023-05-10T03:28:51;9.93;;;4.18;;
59310;SDS011;45078;51.654;21.250;2023-05-10T03:31:18;12.77;;;5.15;;
59310;SDS011;45078;51.654;21.250;2023-05-10T03:33:47;16.20;;;4.97;;
59310;SDS011;45078;51.654;21.250;2023-05-10T03:36:19;15.40;;;4.28;;
59310;SDS011;45078;51.654;21.250;2023-05-10T03:38:46;7.85;;;4.13;;
59310;SDS011;45078;51.654;21.250;2023-05-10T03:41:12;10.60;;;4.63;;
59310;SDS011;45078;51.654;21.250;2023-05-10T03:43:37;12.57;;;4.90;;
59310;SDS011;45078;51.654;21.250;2023-05-10T03:46:03;13.90;;;4.20;;
59310;SDS011;45078;51.654;21.250;2023-05-10T03:48:30;11.52;;;4.43;;
59310;SDS011;45078;51.654;21.250;2023-05-10T03:50:57;10.82;;;5.07;;
59310;SDS011;45078;51.654;21.250;2023-05-10T03:53:23;9.25;;;4.32;;
59310;SDS011;45078;51.654;21.250;2023-05-10T03:55:49;10.45;;;4.47;;
59310;SDS011;45078;51.654;21.250;2023-05-10T03:58:14;9.32;;;4.82;;
59310;SDS011;45078;51.654;21.250;2023-05-10T04:00:40;14.57;;;5.00;;
59310;SDS011;45078;51.654;21.250;2023-05-10T04:03:09;9.02;;;5.03;;
59310;SDS011;45078;51.654;21.250;2023-05-10T04:05:35;8.65;;;4.68;;
59310;SDS011;45078;51.654;21.250;2023-05-10T04:08:01;11.32;;;4.97;;
59310;SDS011;45078;51.654;21.250;2023-05-10T04:10:27;12.40;;;4.85;;
59310;SDS011;45078;51.654;21.250;2023-05-10T04:12:53;9.38;;;5.28;;
59310;SDS011;45078;51.654;21.250;2023-05-10T04:15:19;11.38;;;5.00;;
59310;SDS011;45078;51.654;21.250;2023-05-10T04:17:45;13.32;;;5.40;;
59310;SDS011;45078;51.654;21.250;2023-05-10T04:20:11;9.20;;;4.90;;
59310;SDS011;45078;51.654;21.250;2023-05-10T04:22:37;11.07;;;4.63;;
59310;SDS011;45078;51.654;21.250;2023-05-10T04:25:03;10.85;;;4.50;;
59310;SDS011;45078;51.654;21.250;2023-05-10T04:27:29;9.65;;;4.22;;
59310;SDS011;45078;51.654;21.250;2023-05-10T04:29:56;7.53;;;4.30;;
59310;SDS011;45078;51.654;21.250;2023-05-10T04:32:22;8.25;;;3.63;;
59310;SDS011;45078;51.654;21.250;2023-05-10T04:34:48;10.48;;;4.72;;
59310;SDS011;45078;51.654;21.250;2023-05-10T04:37:15;9.25;;;4.85;;
59310;SDS011;45078;51.654;21.250;2023-05-10T04:39:41;9.00;;;3.88;;
59310;SDS011;45078;51.654;21.250;2023-05-10T04:42:07;8.00;;;4.05;;
59310;SDS011;45078;51.654;21.250;2023-05-10T04:44:33;12.40;;;4.45;;
59310;SDS011;45078;51.654;21.250;2023-05-10T04:46:58;8.90;;;4.60;;
59310;SDS011;45078;51.654;21.250;2023-05-10T04:49:24;7.20;;;4.07;;
59310;SDS011;45078;51.654;21.250;2023-05-10T04:51:50;12.23;;;4.47;;
59310;SDS011;45078;51.654;21.250;2023-05-10T04:54:16;8.00;;;4.28;;
59310;SDS011;45078;51.654;21.250;2023-05-10T04:56:41;8.20;;;3.63;;
59310;SDS011;45078;51.654;21.250;2023-05-10T04:59:07;9.40;;;3.97;;
59310;SDS011;45078;51.654;21.250;2023-05-10T05:01:33;10.05;;;5.03;;
59310;SDS011;45078;51.654;21.250;2023-05-10T05:03:58;10.82;;;3.90;;
59310;SDS011;45078;51.654;21.250;2023-05-10T05:06:24;14.15;;;4.25;;
59310;SDS011;45078;51.654;21.250;2023-05-10T05:08:52;9.45;;;3.80;;
59310;SDS011;45078;51.654;21.250;2023-05-10T05:11:18;7.93;;;3.92;;
59310;SDS011;45078;51.654;21.250;2023-05-10T05:13:44;7.38;;;3.90;;
59310;SDS011;45078;51.654;21.250;2023-05-10T05:16:10;7.53;;;4.03;;
59310;SDS011;45078;51.654;21.250;2023-05-10T05:18:36;6.90;;;3.70;;
59310;SDS011;45078;51.654;21.250;2023-05-10T05:21:02;6.82;;;3.50;;
59310;SDS011;45078;51.654;21.250;2023-05-10T05:23:28;10.25;;;3.63;;
59310;SDS011;45078;51.654;21.250;2023-05-10T05:25:53;6.70;;;3.45;;
59310;SDS011;45078;51.654;21.250;2023-05-10T05:28:19;6.50;;;3.60;;
59310;SDS011;45078;51.654;21.250;2023-05-10T05:30:46;7.30;;;3.20;;
59310;SDS011;45078;51.654;21.250;2023-05-10T05:33:15;6.65;;;3.78;;
59310;SDS011;45078;51.654;21.250;2023-05-10T05:35:40;7.13;;;3.33;;
59310;SDS011;45078;51.654;21.250;2023-05-10T05:38:08;8.13;;;4.20;;
59310;SDS011;45078;51.654;21.250;2023-05-10T05:40:33;8.75;;;3.30;;
59310;SDS011;45078;51.654;21.250;2023-05-10T05:42:59;6.15;;;3.10;;
59310;SDS011;45078;51.654;21.250;2023-05-10T05:45:25;7.82;;;3.08;;
59310;SDS011;45078;51.654;21.250;2023-05-10T05:47:51;9.77;;;3.08;;
59310;SDS011;45078;51.654;21.250;2023-05-10T05:50:17;6.13;;;3.08;;
59310;SDS011;45078;51.654;21.250;2023-05-10T05:52:42;14.57;;;3.67;;
59310;SDS011;45078;51.654;21.250;2023-05-10T05:55:08;6.35;;;3.35;;
59310;SDS011;45078;51.654;21.250;2023-05-10T05:57:34;9.60;;;3.17;;
59310;SDS011;45078;51.654;21.250;2023-05-10T06:00:00;5.18;;;2.72;;
59310;SDS011;45078;51.654;21.250;2023-05-10T06:02:25;6.72;;;2.95;;
59310;SDS011;45078;51.654;21.250;2023-05-10T06:04:51;6.13;;;2.90;;
59310;SDS011;45078;51.654;21.250;2023-05-10T06:07:17;4.30;;;2.35;;
59310;SDS011;45078;51.654;21.250;2023-05-10T06:09:43;7.32;;;2.47;;
59310;SDS011;45078;51.654;21.250;2023-05-10T06:12:09;3.92;;;2.55;;
59310;SDS011;45078;51.654;21.250;2023-05-10T06:14:34;8.02;;;1.80;;
59310;SDS011;45078;51.654;21.250;2023-05-10T06:17:00;4.45;;;2.42;;
59310;SDS011;45078;51.654;21.250;2023-05-10T06:19:29;7.45;;;2.80;;
59310;SDS011;45078;51.654;21.250;2023-05-10T06:21:54;4.68;;;2.22;;
59310;SDS011;45078;51.654;21.250;2023-05-10T06:24:21;4.55;;;2.58;;
59310;SDS011;45078;51.654;21.250;2023-05-10T06:26:46;7.90;;;2.90;;
59310;SDS011;45078;51.654;21.250;2023-05-10T06:29:14;11.43;;;3.28;;
59310;SDS011;45078;51.654;21.250;2023-05-10T06:31:40;3.60;;;2.20;;
59310;SDS011;45078;51.654;21.250;2023-05-10T06:34:06;5.00;;;2.58;;
59310;SDS011;45078;51.654;21.250;2023-05-10T06:36:33;4.75;;;2.05;;
59310;SDS011;45078;51.654;21.250;2023-05-10T06:38:59;4.53;;;2.58;;
59310;SDS011;45078;51.654;21.250;2023-05-10T06:41:24;7.07;;;2.45;;
59310;SDS011;45078;51.654;21.250;2023-05-10T06:43:50;3.53;;;1.95;;
59310;SDS011;45078;51.654;21.250;2023-05-10T06:46:16;2.67;;;1.80;;
59310;SDS011;45078;51.654;21.250;2023-05-10T06:48:41;7.07;;;2.20;;
59310;SDS011;45078;51.654;21.250;2023-05-10T06:51:08;3.58;;;1.90;;
59310;SDS011;45078;51.654;21.250;2023-05-10T06:53:34;3.17;;;1.73;;
59310;SDS011;45078;51.654;21.250;2023-05-10T06:56:00;4.78;;;1.77;;
59310;SDS011;45078;51.654;21.250;2023-05-10T06:58:26;10.70;;;2.42;;
59310;SDS011;45078;51.654;21.250;2023-05-10T07:00:51;4.13;;;1.60;;
59310;SDS011;45078;51.654;21.250;2023-05-10T07:03:17;4.43;;;2.03;;
59310;SDS011;45078;51.654;21.250;2023-05-10T07:05:43;4.25;;;1.60;;
59310;SDS011;45078;51.654;21.250;2023-05-10T07:08:08;6.40;;;1.92;;
59310;SDS011;45078;51.654;21.250;2023-05-10T07:10:34;1.80;;;1.20;;
59310;SDS011;45078;51.654;21.250;2023-05-10T07:13:00;4.38;;;1.75;;
59310;SDS011;45078;51.654;21.250;2023-05-10T07:15:26;3.10;;;1.60;;
59310;SDS011;45078;51.654;21.250;2023-05-10T07:17:53;3.20;;;1.63;;
59310;SDS011;45078;51.654;21.250;2023-05-10T07:20:18;2.47;;;1.33;;
59310;SDS011;45078;51.654;21.250;2023-05-10T07:22:44;6.50;;;1.70;;
59310;SDS011;45078;51.654;21.250;2023-05-10T07:25:10;2.28;;;1.35;;
59310;SDS011;45078;51.654;21.250;2023-05-10T07:27:36;3.58;;;1.63;;
59310;SDS011;45078;51.654;21.250;2023-05-10T07:30:01;3.58;;;1.55;;
59310;SDS011;45078;51.654;21.250;2023-05-10T07:32:27;4.35;;;2.00;;
59310;SDS011;45078;51.654;21.250;2023-05-10T07:34:53;4.00;;;1.73;;
59310;SDS011;45078;51.654;21.250;2023-05-10T07:37:19;3.45;;;1.80;;
59310;SDS011;45078;51.654;21.250;2023-05-10T07:39:45;3.33;;;1.55;;
59310;SDS011;45078;51.654;21.250;2023-05-10T07:42:10;5.72;;;1.80;;
59310;SDS011;45078;51.654;21.250;2023-05-10T07:44:36;3.45;;;1.45;;
59310;SDS011;45078;51.654;21.250;2023-05-10T07:47:02;6.15;;;1.90;;
59310;SDS011;45078;51.654;21.250;2023-05-10T07:49:27;4.10;;;1.73;;
59310;SDS011;45078;51.654;21.250;2023-05-10T07:51:53;2.85;;;1.27;;
59310;SDS011;45078;51.654;21.250;2023-05-10T07:54:19;4.00;;;1.60;;
59310;SDS011;45078;51.654;21.250;2023-05-10T07:56:44;4.32;;;2.83;;
59310;SDS011;45078;51.654;21.250;2023-05-10T07:59:15;3.30;;;1.65;;
59310;SDS011;45078;51.654;21.250;2023-05-10T08:01:42;4.18;;;2.05;;
59310;SDS011;45078;51.654;21.250;2023-05-10T08:04:08;4.10;;;1.85;;
59310;SDS011;45078;51.654;21.250;2023-05-10T08:06:34;2.70;;;1.63;;
59310;SDS011;45078;51.654;21.250;2023-05-10T08:08:59;6.93;;;1.48;;
59310;SDS011;45078;51.654;21.250;2023-05-10T08:11:25;4.22;;;1.70;;
59310;SDS011;45078;51.654;21.250;2023-05-10T08:13:53;3.58;;;1.55;;
59310;SDS011;45078;51.654;21.250;2023-05-10T08:16:19;2.80;;;1.50;;
59310;SDS011;45078;51.654;21.250;2023-05-10T08:18:45;3.75;;;1.20;;
59310;SDS011;45078;51.654;21.250;2023-05-10T08:21:12;3.83;;;1.70;;
59310;SDS011;45078;51.654;21.250;2023-05-10T08:23:38;4.55;;;1.67;;
59310;SDS011;45078;51.654;21.250;2023-05-10T08:26:04;2.40;;;1.33;;
59310;SDS011;45078;51.654;21.250;2023-05-10T08:28:30;3.95;;;1.92;;
59310;SDS011;45078;51.654;21.250;2023-05-10T08:30:56;3.03;;;1.75;;
59310;SDS011;45078;51.654;21.250;2023-05-10T08:33:22;2.97;;;1.58;;
59310;SDS011;45078;51.654;21.250;2023-05-10T08:35:48;5.72;;;1.30;;
59310;SDS011;45078;51.654;21.250;2023-05-10T08:38:14;4.68;;;1.27;;
59310;SDS011;45078;51.654;21.250;2023-05-10T08:40:43;3.20;;;1.85;;
59310;SDS011;45078;51.654;21.250;2023-05-10T08:43:10;4.07;;;1.52;;
59310;SDS011;45078;51.654;21.250;2023-05-10T08:45:37;4.55;;;1.70;;
59310;SDS011;45078;51.654;21.250;2023-05-10T08:48:05;4.75;;;2.38;;
59310;SDS011;45078;51.654;21.250;2023-05-10T08:50:39;3.28;;;1.70;;
59310;SDS011;45078;51.654;21.250;2023-05-10T08:53:09;1.77;;;1.17;;
59310;SDS011;45078;51.654;21.250;2023-05-10T08:55:36;2.78;;;1.30;;
59310;SDS011;45078;51.654;21.250;2023-05-10T08:58:03;2.53;;;1.60;;
59310;SDS011;45078;51.654;21.250;2023-05-10T09:00:30;3.75;;;1.30;;
59310;SDS011;45078;51.654;21.250;2023-05-10T09:02:59;2.17;;;1.40;;
59310;SDS011;45078;51.654;21.250;2023-05-10T09:05:26;6.90;;;1.83;;
59310;SDS011;45078;51.654;21.250;2023-05-10T09:07:52;4.93;;;1.45;;
59310;SDS011;45078;51.654;21.250;2023-05-10T09:10:19;2.45;;;1.42;;
59310;SDS011;45078;51.654;21.250;2023-05-10T09:12:45;3.63;;;1.40;;
59310;SDS011;45078;51.654;21.250;2023-05-10T09:15:14;3.20;;;1.63;;
59310;SDS011;45078;51.654;21.250;2023-05-10T09:17:44;3.15;;;1.60;;
59310;SDS011;45078;51.654;21.250;2023-05-10T09:20:10;1.95;;;1.30;;
59310;SDS011;45078;51.654;21.250;2023-05-10T09:22:36;5.95;;;1.70;;
59310;SDS011;45078;51.654;21.250;2023-05-10T09:27:39;5.88;;;1.65;;
59310;SDS011;45078;51.654;21.250;2023-05-10T09:30:06;3.20;;;1.50;;
59310;SDS011;45078;51.654;21.250;2023-05-10T09:35:06;4.93;;;1.50;;
59310;SDS011;45078;51.654;21.250;2023-05-10T09:37:36;5.20;;;1.65;;
59310;SDS011;45078;51.654;21.250;2023-05-10T09:40:05;2.67;;;1.30;;
59310;SDS011;45078;51.654;21.250;2023-05-10T09:42:33;4.88;;;1.75;;
59310;SDS011;45078;51.654;21.250;2023-05-10T09:45:03;2.17;;;1.40;;
59310;SDS011;45078;51.654;21.250;2023-05-10T09:47:33;4.60;;;1.40;;
59310;SDS011;45078;51.654;21.250;2023-05-10T09:49:59;3.83;;;1.88;;
59310;SDS011;45078;51.654;21.250;2023-05-10T09:55:14;4.20;;;1.88;;
59310;SDS011;45078;51.654;21.250;2023-05-10T09:57:41;6.50;;;1.85;;
59310;SDS011;45078;51.654;21.250;2023-05-10T10:00:07;3.00;;;1.80;;
59310;SDS011;45078;51.654;21.250;2023-05-10T10:02:35;5.75;;;1.63;;
59310;SDS011;45078;51.654;21.250;2023-05-10T10:05:01;3.40;;;2.10;;
59310;SDS011;45078;51.654;21.250;2023-05-10T10:07:30;2.88;;;1.33;;
59310;SDS011;45078;51.654;21.250;2023-05-10T10:09:57;4.28;;;1.70;;
59310;SDS011;45078;51.654;21.250;2023-05-10T10:12:24;2.17;;;1.35;;
59310;SDS011;45078;51.654;21.250;2023-05-10T10:14:50;2.83;;;1.35;;
59310;SDS011;45078;51.654;21.250;2023-05-10T10:17:16;3.90;;;1.55;;
59310;SDS011;45078;51.654;21.250;2023-05-10T10:19:44;4.45;;;1.65;;
59310;SDS011;45078;51.654;21.250;2023-05-10T10:22:13;4.32;;;1.70;;
59310;SDS011;45078;51.654;21.250;2023-05-10T10:24:39;6.13;;;2.25;;
59310;SDS011;45078;51.654;21.250;2023-05-10T10:27:14;3.08;;;1.35;;
59310;SDS011;45078;51.654;21.250;2023-05-10T10:35:09;2.63;;;1.40;;
59310;SDS011;45078;51.654;21.250;2023-05-10T10:37:47;2.70;;;1.42;;
59310;SDS011;45078;51.654;21.250;2023-05-10T10:46:13;3.00;;;1.40;;
59310;SDS011;45078;51.654;21.250;2023-05-10T10:48:39;4.45;;;1.92;;
59310;SDS011;45078;51.654;21.250;2023-05-10T10:51:06;2.90;;;1.50;;
59310;SDS011;45078;51.654;21.250;2023-05-10T10:53:32;4.28;;;1.48;;
59310;SDS011;45078;51.654;21.250;2023-05-10T10:56:08;5.25;;;1.70;;
59310;SDS011;45078;51.654;21.250;2023-05-10T10:58:40;3.00;;;1.55;;
59310;SDS011;45078;51.654;21.250;2023-05-10T11:01:18;3.95;;;1.60;;
59310;SDS011;45078;51.654;21.250;2023-05-10T11:06:33;2.30;;;1.40;;
59310;SDS011;45078;51.654;21.250;2023-05-10T11:09:07;3.05;;;1.65;;
59310;SDS011;45078;51.654;21.250;2023-05-10T11:11:34;3.45;;;1.77;;
59310;SDS011;45078;51.654;21.250;2023-05-10T11:14:04;4.65;;;1.55;;
59310;SDS011;45078;51.654;21.250;2023-05-10T11:16:44;3.47;;;1.73;;
59310;SDS011;45078;51.654;21.250;2023-05-10T11:19:11;4.00;;;1.88;;
59310;SDS011;45078;51.654;21.250;2023-05-10T11:21:44;3.55;;;1.60;;
59310;SDS011;45078;51.654;21.250;2023-05-10T11:24:13;3.22;;;1.52;;
59310;SDS011;45078;51.654;21.250;2023-05-10T11:26:43;4.55;;;1.70;;
59310;SDS011;45078;51.654;21.250;2023-05-10T11:29:09;5.28;;;1.80;;
59310;SDS011;45078;51.654;21.250;2023-05-10T11:31:35;4.15;;;1.92;;
59310;SDS011;45078;51.654;21.250;2023-05-10T11:34:06;4.20;;;2.47;;
59310;SDS011;45078;51.654;21.250;2023-05-10T11:36:33;3.65;;;1.60;;
59310;SDS011;45078;51.654;21.250;2023-05-10T11:39:00;6.10;;;1.83;;
59310;SDS011;45078;51.654;21.250;2023-05-10T11:41:28;3.60;;;1.80;;
59310;SDS011;45078;51.654;21.250;2023-05-10T11:43:56;3.42;;;1.67;;
59310;SDS011;45078;51.654;21.250;2023-05-10T11:46:23;5.85;;;1.90;;
59310;SDS011;45078;51.654;21.250;2023-05-10T11:48:59;2.85;;;1.77;;
59310;SDS011;45078;51.654;21.250;2023-05-10T11:51:29;5.50;;;1.60;;
59310;SDS011;45078;51.654;21.250;2023-05-10T11:53:58;3.90;;;1.80;;
59310;SDS011;45078;51.654;21.250;2023-05-10T11:56:24;4.82;;;1.88;;
59310;SDS011;45078;51.654;21.250;2023-05-10T11:58:52;3.53;;;1.60;;
59310;SDS011;45078;51.654;21.250;2023-05-10T12:01:20;4.38;;;2.00;;
59310;SDS011;45078;51.654;21.250;2023-05-10T12:03:47;2.90;;;1.65;;
59310;SDS011;45078;51.654;21.250;2023-05-10T12:06:14;4.30;;;1.88;;
59310;SDS011;45078;51.654;21.250;2023-05-10T12:08:43;4.18;;;2.00;;
59310;SDS011;45078;51.654;21.250;2023-05-10T12:11:11;8.45;;;2.00;;
59310;SDS011;45078;51.654;21.250;2023-05-10T12:13:41;5.25;;;1.85;;
59310;SDS011;45078;51.654;21.250;2023-05-10T12:16:21;3.40;;;1.90;;
59310;SDS011;45078;51.654;21.250;2023-05-10T12:18:51;6.65;;;1.88;;
59310;SDS011;45078;51.654;21.250;2023-05-10T12:21:19;4.15;;;1.58;;
59310;SDS011;45078;51.654;21.250;2023-05-10T12:23:46;3.22;;;1.65;;
59310;SDS011;45078;51.654;21.250;2023-05-10T12:26:13;3.08;;;1.27;;
59310;SDS011;45078;51.654;21.250;2023-05-10T12:28:39;3.40;;;1.50;;
59310;SDS011;45078;51.654;21.250;2023-05-10T12:31:06;3.08;;;1.60;;
59310;SDS011;45078;51.654;21.250;2023-05-10T12:33:36;4.20;;;1.70;;
59310;SDS011;45078;51.654;21.250;2023-05-10T12:36:09;3.55;;;1.83;;
59310;SDS011;45078;51.654;21.250;2023-05-10T12:38:37;4.68;;;1.80;;
59310;SDS011;45078;51.654;21.250;2023-05-10T12:41:08;3.42;;;1.33;;
59310;SDS011;45078;51.654;21.250;2023-05-10T12:43:35;5.10;;;1.80;;
59310;SDS011;45078;51.654;21.250;2023-05-10T12:46:08;5.70;;;1.67;;
59310;SDS011;45078;51.654;21.250;2023-05-10T12:48:38;2.65;;;1.60;;
59310;SDS011;45078;51.654;21.250;2023-05-10T12:51:05;5.43;;;2.45;;
59310;SDS011;45078;51.654;21.250;2023-05-10T12:53:34;2.58;;;1.67;;
59310;SDS011;45078;51.654;21.250;2023-05-10T12:56:01;6.90;;;1.85;;
59310;SDS011;45078;51.654;21.250;2023-05-10T12:58:26;3.70;;;1.80;;
59310;SDS011;45078;51.654;21.250;2023-05-10T13:00:52;7.65;;;2.35;;
59310;SDS011;45078;51.654;21.250;2023-05-10T13:03:18;3.42;;;1.60;;
59310;SDS011;45078;51.654;21.250;2023-05-10T13:05:44;3.50;;;1.88;;
59310;SDS011;45078;51.654;21.250;2023-05-10T13:08:10;4.38;;;1.45;;
59310;SDS011;45078;51.654;21.250;2023-05-10T13:10:36;5.20;;;1.80;;
59310;SDS011;45078;51.654;21.250;2023-05-10T13:13:01;5.90;;;1.67;;
59310;SDS011;45078;51.654;21.250;2023-05-10T13:15:27;2.78;;;1.30;;
59310;SDS011;45078;51.654;21.250;2023-05-10T13:17:53;2.70;;;1.60;;
59310;SDS011;45078;51.654;21.250;2023-05-10T13:20:20;5.65;;;1.85;;
59310;SDS011;45078;51.654;21.250;2023-05-10T13:22:45;3.95;;;1.73;;
59310;SDS011;45078;51.654;21.250;2023-05-10T13:25:11;6.15;;;1.70;;
59310;SDS011;45078;51.654;21.250;2023-05-10T13:27:40;4.80;;;1.80;;
59310;SDS011;45078;51.654;21.250;2023-05-10T13:30:07;3.40;;;1.73;;
59310;SDS011;45078;51.654;21.250;2023-05-10T13:32:33;3.35;;;1.63;;
59310;SDS011;45078;51.654;21.250;2023-05-10T13:34:59;4.93;;;1.52;;
59310;SDS011;45078;51.654;21.250;2023-05-10T13:37:25;3.55;;;1.83;;
59310;SDS011;45078;51.654;21.250;2023-05-10T13:39:51;4.68;;;1.70;;
59310;SDS011;45078;51.654;21.250;2023-05-10T13:42:17;6.00;;;1.60;;
59310;SDS011;45078;51.654;21.250;2023-05-10T13:44:43;3.17;;;2.00;;
59310;SDS011;45078;51.654;21.250;2023-05-10T13:47:09;2.97;;;1.48;;
59310;SDS011;45078;51.654;21.250;2023-05-10T13:49:35;2.42;;;1.45;;
59310;SDS011;45078;51.654;21.250;2023-05-10T13:52:01;2.63;;;1.45;;
59310;SDS011;45078;51.654;21.250;2023-05-10T13:54:35;3.75;;;1.60;;
59310;SDS011;45078;51.654;21.250;2023-05-10T13:57:02;3.10;;;1.70;;
59310;SDS011;45078;51.654;21.250;2023-05-10T13:59:28;7.07;;;1.90;;
59310;SDS011;45078;51.654;21.250;2023-05-10T14:01:56;4.43;;;1.67;;
59310;SDS011;45078;51.654;21.250;2023-05-10T14:04:23;5.45;;;1.58;;
59310;SDS011;45078;51.654;21.250;2023-05-10T14:06:49;4.00;;;1.45;;
59310;SDS011;45078;51.654;21.250;2023-05-10T14:09:15;3.92;;;1.90;;
59310;SDS011;45078;51.654;21.250;2023-05-10T14:11:41;7.18;;;1.85;;
59310;SDS011;45078;51.654;21.250;2023-05-10T14:14:08;4.35;;;1.92;;
59310;SDS011;45078;51.654;21.250;2023-05-10T14:16:34;3.38;;;1.77;;
59310;SDS011;45078;51.654;21.250;2023-05-10T14:19:00;3.15;;;1.63;;
59310;SDS011;45078;51.654;21.250;2023-05-10T14:21:26;4.28;;;1.83;;
59310;SDS011;45078;51.654;21.250;2023-05-10T14:23:54;4.25;;;2.00;;
59310;SDS011;45078;51.654;21.250;2023-05-10T14:26:20;3.50;;;1.60;;
59310;SDS011;45078;51.654;21.250;2023-05-10T14:28:47;5.53;;;1.75;;
59310;SDS011;45078;51.654;21.250;2023-05-10T14:31:12;3.58;;;2.00;;
59310;SDS011;45078;51.654;21.250;2023-05-10T14:33:39;3.53;;;1.60;;
59310;SDS011;45078;51.654;21.250;2023-05-10T14:36:05;2.83;;;1.73;;
59310;SDS011;45078;51.654;21.250;2023-05-10T14:38:32;11.85;;;1.85;;
59310;SDS011;45078;51.654;21.250;2023-05-10T14:40:58;3.80;;;2.17;;
59310;SDS011;45078;51.654;21.250;2023-05-10T14:43:23;3.30;;;1.80;;
59310;SDS011;45078;51.654;21.250;2023-05-10T14:45:49;3.55;;;1.63;;
59310;SDS011;45078;51.654;21.250;2023-05-10T14:48:15;3.25;;;1.88;;
59310;SDS011;45078;51.654;21.250;2023-05-10T14:50:42;2.88;;;1.83;;
59310;SDS011;45078;51.654;21.250;2023-05-10T14:53:09;2.75;;;1.70;;
59310;SDS011;45078;51.654;21.250;2023-05-10T14:55:35;10.50;;;1.90;;
59310;SDS011;45078;51.654;21.250;2023-05-10T14:58:04;5.00;;;1.40;;
59310;SDS011;45078;51.654;21.250;2023-05-10T15:00:30;5.28;;;1.73;;
59310;SDS011;45078;51.654;21.250;2023-05-10T15:02:56;4.15;;;1.80;;
59310;SDS011;45078;51.654;21.250;2023-05-10T15:05:22;3.10;;;1.73;;
59310;SDS011;45078;51.654;21.250;2023-05-10T15:07:48;2.85;;;1.52;;
59310;SDS011;45078;51.654;21.250;2023-05-10T15:10:14;3.50;;;1.67;;
59310;SDS011;45078;51.654;21.250;2023-05-10T15:12:40;4.93;;;1.90;;
59310;SDS011;45078;51.654;21.250;2023-05-10T15:15:06;2.75;;;1.60;;
59310;SDS011;45078;51.654;21.250;2023-05-10T15:17:32;6.78;;;1.90;;
59310;SDS011;45078;51.654;21.250;2023-05-10T15:19:58;3.83;;;1.88;;